Aviation Digital Data Service (ADDS)

Output produced by TAFs form (0701 UTC 18 December 2017)
found at http://aviationweather.gov/adds/tafs/
 
KCNM 180520Z 1806/1906 31007KT P6SM SCT150 
     FM181200 34006KT P6SM BKN150